PWSweather.com
Personal Weather Stations
Station Observations
WATERF01
WaterfordIE

WaterfordIE

Lat: 52.2412507, Lon: -7.1414691

Elevation: 65

Station Type: Davis Vantage Vue

www.waterfordweather.com

High Low Average
Temperature 52.2°F11.2°C 37.3°F2.9°C 44.1°F6.7°C
Dew Point 50.5°F10.3°C 36.5°F2.5°C 43.0°F6.1°C
Winds 13.8 mph 22.2 kmh Calm Calm 7.0 mph W11.3 kmh W
Wind Gusts 25.3 mph40.7 kmh -- 11.0 mph17.7 kmh
Humidity 98% 91% 96%
Pressure 29.81 in1009.5 mb 29.47 in998.0 mb -
Precipitation 0.37 in9.4 mm - -
Hour Temp Dew Point Humidity Winds Wind Gusts Pressure Precip Precip Rate Daily Precip Total
12:00 AM 52.2°F11.2°C 50.5°F10.3°C 94% 12.7 mph WNW20.4 kmh WNW 23.0 mph37.0 kmh 29.81 in1009.5 mb - 0.00 in0.0 mm 0.00 in0.0 mm
12:10 AM 52.2°F11.2°C 50.5°F10.3°C 94% 11.5 mph WSW18.5 kmh WSW 20.7 mph33.3 kmh 29.81 in1009.5 mb - 0.00 in0.0 mm 0.00 in0.0 mm
12:20 AM 52.2°F11.2°C 50.5°F10.3°C 94% 10.4 mph W16.7 kmh W 13.8 mph22.2 kmh 29.80 in1009.1 mb - 0.00 in0.0 mm 0.00 in0.0 mm
12:30 AM 52.1°F11.2°C 50.4°F10.2°C 94% 12.7 mph SW20.4 kmh SW 18.4 mph29.6 kmh 29.80 in1009.1 mb - 0.00 in0.0 mm 0.00 in0.0 mm
12:40 AM 52.0°F11.1°C 50.3°F10.2°C 94% 10.4 mph WNW16.7 kmh WNW 13.8 mph22.2 kmh 29.79 in1008.8 mb - 0.00 in0.0 mm 0.00 in0.0 mm
12:50 AM 51.8°F11.0°C 50.4°F10.2°C 95% 9.2 mph WSW14.8 kmh WSW 16.1 mph25.9 kmh 29.79 in1008.8 mb - 0.00 in0.0 mm 0.00 in0.0 mm
01:00 AM 51.6°F10.9°C 50.2°F10.1°C 95% 10.4 mph NW16.7 kmh NW 15.0 mph24.1 kmh 29.78 in1008.5 mb - 0.00 in0.0 mm 0.00 in0.0 mm
01:10 AM 51.5°F10.8°C 50.1°F10.1°C 95% 11.5 mph WSW18.5 kmh WSW 19.6 mph31.5 kmh 29.78 in1008.5 mb - 0.00 in0.0 mm 0.00 in0.0 mm
01:20 AM 51.4°F10.8°C 50.0°F10.0°C 95% 11.5 mph WSW18.5 kmh WSW 20.7 mph33.3 kmh 29.77 in1008.1 mb - 0.00 in0.0 mm 0.00 in0.0 mm
01:30 AM 51.3°F10.7°C 49.9°F9.9°C 95% 10.4 mph W16.7 kmh W 16.1 mph25.9 kmh 29.76 in1007.8 mb - 0.00 in0.0 mm 0.00 in0.0 mm
01:40 AM 51.2°F10.7°C 49.8°F9.9°C 95% 13.8 mph SW22.2 kmh SW 20.7 mph33.3 kmh 29.75 in1007.5 mb - 0.00 in0.0 mm 0.00 in0.0 mm
01:50 AM 51.2°F10.7°C 50.1°F10.1°C 96% 13.8 mph SW22.2 kmh SW 19.6 mph31.5 kmh 29.75 in1007.5 mb - 0.00 in0.0 mm 0.00 in0.0 mm
02:00 AM 51.2°F10.7°C 50.1°F10.1°C 96% 12.7 mph WSW20.4 kmh WSW 19.6 mph31.5 kmh 29.74 in1007.1 mb - 0.00 in0.0 mm 0.00 in0.0 mm
02:10 AM 51.1°F10.6°C 50.0°F10.0°C 96% 12.7 mph WSW20.4 kmh WSW 20.7 mph33.3 kmh 29.74 in1007.1 mb - 0.00 in0.0 mm 0.00 in0.0 mm
02:20 AM 51.1°F10.6°C 50.0°F10.0°C 96% 13.8 mph WSW22.2 kmh WSW 21.9 mph35.2 kmh 29.74 in1007.1 mb - 0.00 in0.0 mm 0.00 in0.0 mm
02:30 AM 51.1°F10.6°C 50.0°F10.0°C 96% 11.5 mph W18.5 kmh W 13.8 mph22.2 kmh 29.73 in1006.8 mb - 0.00 in0.0 mm 0.00 in0.0 mm
02:40 AM 51.1°F10.6°C 50.0°F10.0°C 96% 10.4 mph WNW16.7 kmh WNW 16.1 mph25.9 kmh 29.73 in1006.8 mb - 0.01 in0.3 mm 0.01 in0.3 mm
02:50 AM 51.0°F10.6°C 49.9°F9.9°C 96% 13.8 mph WSW22.2 kmh WSW 25.3 mph40.7 kmh 29.72 in1006.4 mb - 0.00 in0.0 mm 0.01 in0.3 mm
03:00 AM 51.0°F10.6°C 49.9°F9.9°C 96% 11.5 mph WSW18.5 kmh WSW 21.9 mph35.2 kmh 29.72 in1006.4 mb - 0.00 in0.0 mm 0.01 in0.3 mm
03:10 AM 50.9°F10.5°C 49.8°F9.9°C 96% 12.7 mph WNW20.4 kmh WNW 21.9 mph35.2 kmh 29.71 in1006.1 mb - 0.00 in0.0 mm 0.01 in0.3 mm
03:20 AM 51.0°F10.6°C 49.9°F9.9°C 96% 11.5 mph SW18.5 kmh SW 21.9 mph35.2 kmh 29.70 in1005.8 mb - 0.00 in0.0 mm 0.01 in0.3 mm
03:30 AM 51.0°F10.6°C 49.9°F9.9°C 96% 11.5 mph WSW18.5 kmh WSW 16.1 mph25.9 kmh 29.70 in1005.8 mb - 0.00 in0.0 mm 0.01 in0.3 mm
03:40 AM 51.1°F10.6°C 50.0°F10.0°C 96% 8.1 mph WSW13.0 kmh WSW 15.0 mph24.1 kmh 29.69 in1005.4 mb - 0.00 in0.0 mm 0.01 in0.3 mm
03:50 AM 51.2°F10.7°C 50.1°F10.1°C 96% 12.7 mph WSW20.4 kmh WSW 19.6 mph31.5 kmh 29.68 in1005.1 mb - 0.00 in0.0 mm 0.01 in0.3 mm
04:00 AM 51.3°F10.7°C 50.2°F10.1°C 96% 11.5 mph WSW18.5 kmh WSW 23.0 mph37.0 kmh 29.68 in1005.1 mb - 0.01 in0.3 mm 0.02 in0.5 mm
04:10 AM 51.3°F10.7°C 50.2°F10.1°C 96% 13.8 mph WSW22.2 kmh WSW 19.6 mph31.5 kmh 29.67 in1004.7 mb - 0.00 in0.0 mm 0.02 in0.5 mm
04:20 AM 51.3°F10.7°C 50.2°F10.1°C 96% 9.2 mph WNW14.8 kmh WNW 16.1 mph25.9 kmh 29.67 in1004.7 mb - 0.00 in0.0 mm 0.02 in0.5 mm
04:30 AM 51.3°F10.7°C 50.2°F10.1°C 96% 8.1 mph S13.0 kmh S 20.7 mph33.3 kmh 29.66 in1004.4 mb - 0.00 in0.0 mm 0.02 in0.5 mm
04:40 AM 51.3°F10.7°C 50.2°F10.1°C 96% 11.5 mph WSW18.5 kmh WSW 16.1 mph25.9 kmh 29.65 in1004.1 mb - 0.00 in0.0 mm 0.02 in0.5 mm
04:50 AM 51.4°F10.8°C 50.0°F10.0°C 95% 12.7 mph WNW20.4 kmh WNW 15.0 mph24.1 kmh 29.65 in1004.1 mb - 0.00 in0.0 mm 0.02 in0.5 mm
05:00 AM 51.4°F10.8°C 50.0°F10.0°C 95% 10.4 mph WSW16.7 kmh WSW 19.6 mph31.5 kmh 29.64 in1003.7 mb - 0.00 in0.0 mm 0.02 in0.5 mm
05:10 AM 51.4°F10.8°C 50.0°F10.0°C 95% 10.4 mph WNW16.7 kmh WNW 19.6 mph31.5 kmh 29.64 in1003.7 mb - 0.00 in0.0 mm 0.02 in0.5 mm
05:20 AM 51.4°F10.8°C 50.1°F10.1°C 95% 11.5 mph SW18.5 kmh SW 19.6 mph31.5 kmh 29.63 in1003.4 mb - 0.00 in0.0 mm 0.02 in0.5 mm
05:30 AM 51.4°F10.8°C 50.0°F10.0°C 95% 12.7 mph W20.4 kmh W 19.6 mph31.5 kmh 29.63 in1003.4 mb - 0.00 in0.0 mm 0.02 in0.5 mm
05:40 AM 51.5°F10.8°C 50.1°F10.1°C 95% 10.4 mph SW16.7 kmh SW 16.1 mph25.9 kmh 29.62 in1003.0 mb - 0.00 in0.0 mm 0.02 in0.5 mm
05:50 AM 51.4°F10.8°C 50.0°F10.0°C 95% 11.5 mph SW18.5 kmh SW 19.6 mph31.5 kmh 29.61 in1002.7 mb - 0.01 in0.3 mm 0.03 in0.8 mm
06:00 AM 51.4°F10.8°C 50.0°F10.0°C 95% 9.2 mph WSW14.8 kmh WSW 16.1 mph25.9 kmh 29.61 in1002.7 mb - 0.01 in0.3 mm 0.03 in0.8 mm
06:10 AM 51.4°F10.8°C 50.0°F10.0°C 95% 10.4 mph W16.7 kmh W 16.1 mph25.9 kmh 29.61 in1002.7 mb - 0.00 in0.0 mm 0.03 in0.8 mm
06:20 AM 51.4°F10.8°C 50.0°F10.0°C 95% 10.4 mph SW16.7 kmh SW 16.1 mph25.9 kmh 29.60 in1002.4 mb - 0.00 in0.0 mm 0.03 in0.8 mm
06:30 AM 51.4°F10.8°C 50.0°F10.0°C 95% 11.5 mph SW18.5 kmh SW 21.9 mph35.2 kmh 29.59 in1002.0 mb - 0.00 in0.0 mm 0.03 in0.8 mm
06:40 AM 51.2°F10.7°C 49.8°F9.9°C 95% 9.2 mph SW14.8 kmh SW 16.1 mph25.9 kmh 29.58 in1001.7 mb - 0.00 in0.0 mm 0.03 in0.8 mm
06:50 AM 50.9°F10.5°C 49.5°F9.7°C 95% 10.4 mph W16.7 kmh W 16.1 mph25.9 kmh 29.58 in1001.7 mb - 0.00 in0.0 mm 0.03 in0.8 mm
07:00 AM 50.5°F10.3°C 49.4°F9.7°C 96% 6.9 mph WSW11.1 kmh WSW 13.8 mph22.2 kmh 29.58 in1001.7 mb - 0.00 in0.0 mm 0.03 in0.8 mm
07:10 AM 50.3°F10.2°C 49.2°F9.6°C 96% 6.9 mph NW11.1 kmh NW 13.8 mph22.2 kmh 29.58 in1001.7 mb - 0.00 in0.0 mm 0.03 in0.8 mm
07:20 AM 50.2°F10.1°C 49.1°F9.5°C 96% 4.6 mph SW7.4 kmh SW 9.2 mph14.8 kmh 29.57 in1001.4 mb - 0.01 in0.3 mm 0.04 in1.0 mm
07:30 AM 50.0°F10.0°C 48.9°F9.4°C 96% 3.5 mph W5.6 kmh W 5.8 mph9.3 kmh 29.57 in1001.4 mb - 0.00 in0.0 mm 0.04 in1.0 mm
07:40 AM 49.5°F9.7°C 48.4°F9.1°C 96% 8.1 mph NW13.0 kmh NW 12.7 mph20.4 kmh 29.56 in1001.0 mb - 0.00 in0.0 mm 0.04 in1.0 mm
07:50 AM 47.4°F8.6°C 46.0°F7.8°C 95% 6.9 mph WNW11.1 kmh WNW 11.5 mph18.5 kmh 29.57 in1001.4 mb - 0.01 in0.3 mm 0.05 in1.3 mm
08:00 AM 46.0°F7.8°C 44.7°F7.1°C 95% 8.1 mph WNW13.0 kmh WNW 16.1 mph25.9 kmh 29.57 in1001.4 mb - 0.00 in0.0 mm 0.05 in1.3 mm
08:10 AM 45.2°F7.3°C 44.1°F6.7°C 96% 11.5 mph NW18.5 kmh NW 15.0 mph24.1 kmh 29.56 in1001.0 mb - 0.00 in0.0 mm 0.05 in1.3 mm
08:20 AM 44.7°F7.1°C 43.6°F6.4°C 96% 9.2 mph NW14.8 kmh NW 16.1 mph25.9 kmh 29.57 in1001.4 mb - 0.01 in0.3 mm 0.06 in1.5 mm
08:30 AM 44.3°F6.8°C 43.2°F6.2°C 96% 6.9 mph NW11.1 kmh NW 15.0 mph24.1 kmh 29.57 in1001.4 mb - 0.01 in0.3 mm 0.07 in1.8 mm
08:40 AM 44.1°F6.7°C 43.0°F6.1°C 96% 5.8 mph NW9.3 kmh NW 11.5 mph18.5 kmh 29.58 in1001.7 mb - 0.00 in0.0 mm 0.07 in1.8 mm
08:50 AM 43.9°F6.6°C 42.8°F6.0°C 96% 9.2 mph NW14.8 kmh NW 13.8 mph22.2 kmh 29.57 in1001.4 mb - 0.01 in0.3 mm 0.08 in2.0 mm
09:00 AM 43.7°F6.5°C 42.9°F6.1°C 97% 6.9 mph NW11.1 kmh NW 9.2 mph14.8 kmh 29.57 in1001.4 mb - 0.00 in0.0 mm 0.08 in2.0 mm
09:10 AM 43.6°F6.4°C 42.8°F6.0°C 97% 6.9 mph NW11.1 kmh NW 11.5 mph18.5 kmh 29.56 in1001.0 mb - 0.01 in0.3 mm 0.09 in2.3 mm
09:20 AM 43.4°F6.3°C 42.6°F5.9°C 97% 6.9 mph NW11.1 kmh NW 12.7 mph20.4 kmh 29.57 in1001.4 mb - 0.00 in0.0 mm 0.09 in2.3 mm
09:30 AM 43.2°F6.2°C 42.4°F5.8°C 97% 11.5 mph NW18.5 kmh NW 15.0 mph24.1 kmh 29.56 in1001.0 mb - 0.01 in0.3 mm 0.10 in2.5 mm
09:40 AM 43.1°F6.2°C 42.3°F5.7°C 97% 9.2 mph NW14.8 kmh NW 16.1 mph25.9 kmh 29.57 in1001.4 mb - 0.01 in0.3 mm 0.11 in2.8 mm
09:50 AM 42.9°F6.1°C 42.1°F5.6°C 97% 10.4 mph NW16.7 kmh NW 13.8 mph22.2 kmh 29.56 in1001.0 mb - 0.00 in0.0 mm 0.11 in2.8 mm
10:00 AM 42.6°F5.9°C 41.8°F5.4°C 97% 8.1 mph NNW13.0 kmh NNW 11.5 mph18.5 kmh 29.56 in1001.0 mb - 0.01 in0.3 mm 0.12 in3.0 mm
10:10 AM 42.2°F5.7°C 41.4°F5.2°C 97% 10.4 mph NW16.7 kmh NW 16.1 mph25.9 kmh 29.56 in1001.0 mb - 0.01 in0.3 mm 0.13 in3.3 mm
10:20 AM 42.3°F5.7°C 41.5°F5.3°C 97% 10.4 mph NW16.7 kmh NW 15.0 mph24.1 kmh 29.55 in1000.7 mb - 0.00 in0.0 mm 0.13 in3.3 mm
10:30 AM 41.7°F5.4°C 40.9°F4.9°C 97% 8.1 mph NW13.0 kmh NW 11.5 mph18.5 kmh 29.56 in1001.0 mb - 0.02 in0.5 mm 0.15 in3.8 mm
10:40 AM 41.6°F5.3°C 40.8°F4.9°C 97% 9.2 mph NW14.8 kmh NW 13.8 mph22.2 kmh 29.55 in1000.7 mb - 0.01 in0.3 mm 0.16 in4.1 mm
10:50 AM 41.7°F5.4°C 41.0°F5.0°C 97% 8.1 mph NW13.0 kmh NW 11.5 mph18.5 kmh 29.55 in1000.7 mb - 0.02 in0.5 mm 0.18 in4.6 mm
11:00 AM 41.6°F5.3°C 40.8°F4.9°C 97% 5.8 mph NW9.3 kmh NW 8.1 mph13.0 kmh 29.55 in1000.7 mb - 0.02 in0.5 mm 0.19 in4.8 mm
11:10 AM 41.2°F5.1°C 40.4°F4.7°C 97% 8.1 mph NW13.0 kmh NW 12.7 mph20.4 kmh 29.55 in1000.7 mb - 0.03 in0.8 mm 0.22 in5.6 mm
11:20 AM 41.0°F5.0°C 40.3°F4.6°C 97% 6.9 mph NW11.1 kmh NW 9.2 mph14.8 kmh 29.54 in1000.3 mb - 0.01 in0.3 mm 0.23 in5.8 mm
11:30 AM 41.0°F5.0°C 40.2°F4.6°C 97% 5.8 mph NW9.3 kmh NW 8.1 mph13.0 kmh 29.54 in1000.3 mb - 0.02 in0.5 mm 0.25 in6.4 mm
11:40 AM 40.8°F4.9°C 40.0°F4.4°C 97% 5.8 mph NW9.3 kmh NW 10.4 mph16.7 kmh 29.54 in1000.3 mb - 0.02 in0.5 mm 0.26 in6.6 mm
11:50 AM 40.7°F4.8°C 39.9°F4.4°C 97% 6.9 mph NW11.1 kmh NW 8.1 mph13.0 kmh 29.53 in1000.0 mb - 0.02 in0.5 mm 0.28 in7.1 mm
12:00 PM 40.7°F4.8°C 39.9°F4.4°C 97% 5.8 mph NW9.3 kmh NW 9.2 mph14.8 kmh 29.52 in999.7 mb - 0.02 in0.5 mm 0.29 in7.4 mm
12:10 PM 40.4°F4.7°C 39.6°F4.2°C 97% 8.1 mph NW13.0 kmh NW 9.2 mph14.8 kmh 29.52 in999.7 mb - 0.00 in0.0 mm 0.29 in7.4 mm
12:20 PM 40.4°F4.7°C 39.6°F4.2°C 97% 4.6 mph NW7.4 kmh NW 5.8 mph9.3 kmh 29.53 in1000.0 mb - 0.01 in0.3 mm 0.30 in7.6 mm
12:30 PM 40.7°F4.8°C 39.9°F4.4°C 97% 8.1 mph NW13.0 kmh NW 15.0 mph24.1 kmh 29.52 in999.7 mb - 0.00 in0.0 mm 0.30 in7.6 mm
12:40 PM 40.4°F4.7°C 39.9°F4.4°C 98% 8.1 mph NW13.0 kmh NW 12.7 mph20.4 kmh 29.51 in999.3 mb - 0.01 in0.3 mm 0.31 in7.9 mm
12:50 PM 40.5°F4.7°C 40.0°F4.4°C 98% 5.8 mph NW9.3 kmh NW 8.1 mph13.0 kmh 29.51 in999.3 mb - 0.01 in0.3 mm 0.32 in8.1 mm
01:00 PM 40.3°F4.6°C 39.8°F4.3°C 98% 8.1 mph NW13.0 kmh NW 13.8 mph22.2 kmh 29.51 in999.3 mb - 0.01 in0.3 mm 0.33 in8.4 mm
01:10 PM 40.1°F4.5°C 39.6°F4.2°C 98% 6.9 mph NW11.1 kmh NW 8.1 mph13.0 kmh 29.51 in999.3 mb - 0.00 in0.0 mm 0.33 in8.4 mm
01:20 PM 40.1°F4.5°C 39.6°F4.2°C 98% 6.9 mph NW11.1 kmh NW 11.5 mph18.5 kmh 29.52 in999.7 mb - 0.01 in0.3 mm 0.34 in8.6 mm
01:30 PM 40.1°F4.5°C 39.6°F4.2°C 98% 6.9 mph NW11.1 kmh NW 11.5 mph18.5 kmh 29.51 in999.3 mb - 0.01 in0.3 mm 0.35 in8.9 mm
01:40 PM 40.0°F4.4°C 39.5°F4.2°C 98% 5.8 mph NW9.3 kmh NW 9.2 mph14.8 kmh 29.51 in999.3 mb - 0.01 in0.3 mm 0.35 in8.9 mm
01:50 PM 39.9°F4.4°C 39.4°F4.1°C 98% 5.8 mph WNW9.3 kmh WNW 8.1 mph13.0 kmh 29.51 in999.3 mb - 0.01 in0.3 mm 0.36 in9.1 mm
02:00 PM 40.0°F4.4°C 39.5°F4.2°C 98% 4.6 mph WNW7.4 kmh WNW 9.2 mph14.8 kmh 29.51 in999.3 mb - 0.00 in0.0 mm 0.36 in9.1 mm
02:10 PM 40.1°F4.5°C 39.6°F4.2°C 98% 6.9 mph NW11.1 kmh NW 8.1 mph13.0 kmh 29.50 in999.0 mb - 0.00 in0.0 mm 0.36 in9.1 mm
02:20 PM 40.2°F4.6°C 39.7°F4.3°C 98% 5.8 mph NW9.3 kmh NW 8.1 mph13.0 kmh 29.50 in999.0 mb - 0.00 in0.0 mm 0.36 in9.1 mm
02:30 PM 40.4°F4.7°C 39.9°F4.4°C 98% 4.6 mph NW7.4 kmh NW 9.2 mph14.8 kmh 29.50 in999.0 mb - 0.00 in0.0 mm 0.36 in9.1 mm
02:40 PM 40.2°F4.6°C 39.7°F4.3°C 98% 4.6 mph NW7.4 kmh NW 6.9 mph11.1 kmh 29.50 in999.0 mb - 0.00 in0.0 mm 0.36 in9.1 mm
02:50 PM 40.1°F4.5°C 39.6°F4.2°C 98% 5.8 mph WNW9.3 kmh WNW 9.2 mph14.8 kmh 29.50 in999.0 mb - 0.00 in0.0 mm 0.36 in9.1 mm
03:00 PM 39.9°F4.4°C 39.4°F4.1°C 98% 4.6 mph WNW7.4 kmh WNW 6.9 mph11.1 kmh 29.50 in999.0 mb - 0.01 in0.3 mm 0.37 in9.4 mm
03:10 PM 39.9°F4.4°C 39.4°F4.1°C 98% 2.3 mph WNW3.7 kmh WNW 5.8 mph9.3 kmh 29.50 in999.0 mb - 0.00 in0.0 mm 0.37 in9.4 mm
03:20 PM 39.8°F4.3°C 39.3°F4.1°C 98% 4.6 mph WNW7.4 kmh WNW 8.1 mph13.0 kmh 29.50 in999.0 mb - 0.00 in0.0 mm 0.37 in9.4 mm
03:30 PM 39.9°F4.4°C 39.4°F4.1°C 98% 2.3 mph WNW3.7 kmh WNW 4.6 mph7.4 kmh 29.50 in999.0 mb - 0.00 in0.0 mm 0.37 in9.4 mm
03:40 PM 39.9°F4.4°C 39.4°F4.1°C 98% 2.3 mph WNW3.7 kmh WNW 4.6 mph7.4 kmh 29.50 in999.0 mb - 0.00 in0.0 mm 0.37 in9.4 mm
03:50 PM 39.9°F4.4°C 39.4°F4.1°C 98% 1.2 mph W1.9 kmh W 4.6 mph7.4 kmh 29.49 in998.6 mb - 0.00 in0.0 mm 0.37 in9.4 mm
04:00 PM 40.0°F4.4°C 39.5°F4.2°C 98% Calm Calm -- 29.49 in998.6 mb - 0.00 in0.0 mm 0.37 in9.4 mm
04:10 PM 40.1°F4.5°C 39.6°F4.2°C 98% Calm Calm -- 29.49 in998.6 mb - 0.00 in0.0 mm 0.37 in9.4 mm
04:20 PM 40.0°F4.4°C 39.5°F4.2°C 98% Calm Calm -- 29.49 in998.6 mb - 0.00 in0.0 mm 0.37 in9.4 mm
04:30 PM 40.0°F4.4°C 39.5°F4.2°C 98% Calm Calm -- 29.48 in998.3 mb - 0.00 in0.0 mm 0.37 in9.4 mm
04:40 PM 40.0°F4.4°C 39.5°F4.2°C 98% Calm Calm -- 29.48 in998.3 mb - 0.00 in0.0 mm 0.37 in9.4 mm
04:50 PM 39.9°F4.4°C 39.4°F4.1°C 98% Calm Calm -- 29.48 in998.3 mb - 0.00 in0.0 mm 0.37 in9.4 mm
05:00 PM 39.9°F4.4°C 39.4°F4.1°C 98% Calm Calm -- 29.48 in998.3 mb - 0.00 in0.0 mm 0.37 in9.4 mm
05:10 PM 39.9°F4.4°C 39.4°F4.1°C 98% Calm Calm 2.3 mph3.7 kmh 29.48 in998.3 mb - 0.00 in0.0 mm 0.37 in9.4 mm
05:20 PM 39.6°F4.2°C 39.1°F3.9°C 98% 3.5 mph S5.6 kmh S 5.8 mph9.3 kmh 29.48 in998.3 mb - 0.00 in0.0 mm 0.37 in9.4 mm
05:30 PM 39.5°F4.2°C 39.0°F3.9°C 98% 1.2 mph WSW1.9 kmh WSW -- 29.48 in998.3 mb - 0.00 in0.0 mm 0.37 in9.4 mm
05:40 PM 39.4°F4.1°C 38.9°F3.8°C 98% Calm Calm -- 29.48 in998.3 mb - 0.00 in0.0 mm 0.37 in9.4 mm
05:50 PM 39.2°F4.0°C 38.7°F3.7°C 98% Calm Calm -- 29.48 in998.3 mb - 0.00 in0.0 mm 0.37 in9.4 mm
06:00 PM 39.0°F3.9°C 38.5°F3.6°C 98% Calm Calm -- 29.48 in998.3 mb - 0.00 in0.0 mm 0.37 in9.4 mm
06:10 PM 38.8°F3.8°C 38.3°F3.5°C 98% Calm Calm -- 29.48 in998.3 mb - 0.00 in0.0 mm 0.37 in9.4 mm
06:20 PM 38.3°F3.5°C 37.8°F3.2°C 98% Calm Calm -- 29.48 in998.3 mb - 0.00 in0.0 mm 0.37 in9.4 mm
06:30 PM 37.9°F3.3°C 37.4°F3.0°C 98% Calm Calm -- 29.48 in998.3 mb - 0.00 in0.0 mm 0.37 in9.4 mm
06:40 PM 37.6°F3.1°C 37.1°F2.8°C 98% Calm Calm -- 29.48 in998.3 mb - 0.00 in0.0 mm 0.37 in9.4 mm
06:50 PM 37.3°F2.9°C 36.8°F2.7°C 98% Calm Calm -- 29.48 in998.3 mb - 0.00 in0.0 mm 0.37 in9.4 mm
07:00 PM 37.4°F3.0°C 36.9°F2.7°C 98% Calm Calm -- 29.48 in998.3 mb - 0.00 in0.0 mm 0.37 in9.4 mm
07:10 PM 37.5°F3.1°C 37.0°F2.8°C 98% 1.2 mph WNW1.9 kmh WNW 5.8 mph9.3 kmh 29.48 in998.3 mb - 0.00 in0.0 mm 0.37 in9.4 mm
07:20 PM 38.8°F3.8°C 38.3°F3.5°C 98% 4.6 mph WNW7.4 kmh WNW 8.1 mph13.0 kmh 29.48 in998.3 mb - 0.00 in0.0 mm 0.37 in9.4 mm
07:30 PM 39.9°F4.4°C 39.3°F4.1°C 98% 2.3 mph WNW3.7 kmh WNW 5.8 mph9.3 kmh 29.48 in998.3 mb - 0.00 in0.0 mm 0.37 in9.4 mm
07:40 PM 40.1°F4.5°C 39.6°F4.2°C 98% 4.6 mph W7.4 kmh W 6.9 mph11.1 kmh 29.48 in998.3 mb - 0.00 in0.0 mm 0.37 in9.4 mm
07:50 PM 40.4°F4.7°C 39.6°F4.2°C 97% 4.6 mph WNW7.4 kmh WNW 8.1 mph13.0 kmh 29.48 in998.3 mb - 0.00 in0.0 mm 0.37 in9.4 mm
08:00 PM 40.7°F4.8°C 39.6°F4.2°C 96% 4.6 mph WNW7.4 kmh WNW 12.7 mph20.4 kmh 29.47 in998.0 mb - 0.00 in0.0 mm 0.37 in9.4 mm
08:10 PM 41.1°F5.1°C 39.7°F4.3°C 95% 6.9 mph NW11.1 kmh NW 11.5 mph18.5 kmh 29.48 in998.3 mb - 0.00 in0.0 mm 0.37 in9.4 mm
08:20 PM 40.7°F4.8°C 39.1°F3.9°C 94% 3.5 mph WNW5.6 kmh WNW 8.1 mph13.0 kmh 29.48 in998.3 mb - 0.00 in0.0 mm 0.37 in9.4 mm
08:30 PM 40.7°F4.8°C 38.8°F3.8°C 93% 3.5 mph WNW5.6 kmh WNW 5.8 mph9.3 kmh 29.48 in998.3 mb - 0.00 in0.0 mm 0.37 in9.4 mm
08:40 PM 40.6°F4.8°C 38.7°F3.7°C 93% 4.6 mph WNW7.4 kmh WNW 8.1 mph13.0 kmh 29.48 in998.3 mb - 0.00 in0.0 mm 0.37 in9.4 mm
08:50 PM 40.6°F4.8°C 38.5°F3.6°C 92% 8.1 mph WNW13.0 kmh WNW 12.7 mph20.4 kmh 29.48 in998.3 mb - 0.00 in0.0 mm 0.37 in9.4 mm
09:00 PM 40.6°F4.8°C 38.5°F3.6°C 92% 6.9 mph WNW11.1 kmh WNW 9.2 mph14.8 kmh 29.48 in998.3 mb - 0.00 in0.0 mm 0.37 in9.4 mm
09:10 PM 40.7°F4.8°C 38.5°F3.6°C 92% 6.9 mph WNW11.1 kmh WNW 8.1 mph13.0 kmh 29.48 in998.3 mb - 0.00 in0.0 mm 0.37 in9.4 mm
09:20 PM 40.4°F4.7°C 38.2°F3.4°C 92% 3.5 mph W5.6 kmh W 8.1 mph13.0 kmh 29.48 in998.3 mb - 0.00 in0.0 mm 0.37 in9.4 mm
09:30 PM 39.9°F4.4°C 38.0°F3.3°C 93% 4.6 mph WNW7.4 kmh WNW 8.1 mph13.0 kmh 29.48 in998.3 mb - 0.00 in0.0 mm 0.37 in9.4 mm
09:40 PM 39.5°F4.2°C 37.6°F3.1°C 93% 3.5 mph WNW5.6 kmh WNW 5.8 mph9.3 kmh 29.48 in998.3 mb - 0.00 in0.0 mm 0.37 in9.4 mm
09:50 PM 39.6°F4.2°C 37.7°F3.2°C 93% 4.6 mph WNW7.4 kmh WNW 6.9 mph11.1 kmh 29.48 in998.3 mb - 0.00 in0.0 mm 0.37 in9.4 mm
10:00 PM 39.8°F4.3°C 37.7°F3.2°C 92% 6.9 mph WNW11.1 kmh WNW 8.1 mph13.0 kmh 29.48 in998.3 mb - 0.00 in0.0 mm 0.37 in9.4 mm
10:10 PM 40.1°F4.5°C 38.0°F3.3°C 92% 4.6 mph WNW7.4 kmh WNW 5.8 mph9.3 kmh 29.48 in998.3 mb - 0.00 in0.0 mm 0.37 in9.4 mm
10:20 PM 40.2°F4.6°C 38.1°F3.4°C 92% 3.5 mph NW5.6 kmh NW 6.9 mph11.1 kmh 29.48 in998.3 mb - 0.00 in0.0 mm 0.37 in9.4 mm
10:30 PM 40.2°F4.6°C 38.1°F3.4°C 92% 2.3 mph WNW3.7 kmh WNW 5.8 mph9.3 kmh 29.48 in998.3 mb - 0.00 in0.0 mm 0.37 in9.4 mm
10:40 PM 39.8°F4.3°C 37.7°F3.2°C 92% 3.5 mph W5.6 kmh W 6.9 mph11.1 kmh 29.48 in998.3 mb - 0.00 in0.0 mm 0.37 in9.4 mm
10:50 PM 39.5°F4.2°C 37.4°F3.0°C 92% 3.5 mph W5.6 kmh W 5.8 mph9.3 kmh 29.48 in998.3 mb - 0.00 in0.0 mm 0.37 in9.4 mm
11:00 PM 39.2°F4.0°C 37.1°F2.8°C 92% 3.5 mph W5.6 kmh W 5.8 mph9.3 kmh 29.48 in998.3 mb - 0.00 in0.0 mm 0.37 in9.4 mm
11:10 PM 38.7°F3.7°C 36.6°F2.6°C 92% 2.3 mph WSW3.7 kmh WSW 5.8 mph9.3 kmh 29.48 in998.3 mb - 0.00 in0.0 mm 0.37 in9.4 mm
11:20 PM 38.6°F3.7°C 36.5°F2.5°C 92% 5.8 mph WNW9.3 kmh WNW 9.2 mph14.8 kmh 29.48 in998.3 mb - 0.00 in0.0 mm 0.37 in9.4 mm
11:30 PM 38.9°F3.8°C 36.5°F2.5°C 91% 5.8 mph WSW9.3 kmh WSW 13.8 mph22.2 kmh 29.49 in998.6 mb - 0.00 in0.0 mm 0.37 in9.4 mm
11:40 PM 38.8°F3.8°C 36.9°F2.7°C 93% 6.9 mph W11.1 kmh W 11.5 mph18.5 kmh 29.49 in998.6 mb - 0.00 in0.0 mm 0.37 in9.4 mm
11:50 PM 39.5°F4.2°C 37.1°F2.8°C 91% 5.8 mph WSW9.3 kmh WSW 8.1 mph13.0 kmh 29.49 in998.6 mb - 0.00 in0.0 mm 0.37 in9.4 mm